sensor_id;sensor_type;location;lat;lon;timestamp;pressure;altitude;pressure_sealevel;temperature;humidity
3096;BME280;1558;42.700;23.360;2023-03-13T00:01:31;95569.50;;;1.64;75.00
3096;BME280;1558;42.700;23.360;2023-03-13T00:04:00;95590.75;;;1.69;75.09
3096;BME280;1558;42.700;23.360;2023-03-13T00:06:30;95592.91;;;1.67;76.33
3096;BME280;1558;42.700;23.360;2023-03-13T00:08:59;95588.63;;;1.71;75.80
3096;BME280;1558;42.700;23.360;2023-03-13T00:11:28;95584.63;;;1.74;75.95
3096;BME280;1558;42.700;23.360;2023-03-13T00:13:57;95592.09;;;1.82;75.79
3096;BME280;1558;42.700;23.360;2023-03-13T00:16:26;95596.06;;;1.84;76.50
3096;BME280;1558;42.700;23.360;2023-03-13T00:18:56;95594.47;;;1.83;75.52
3096;BME280;1558;42.700;23.360;2023-03-13T00:21:26;95600.88;;;1.72;75.28
3096;BME280;1558;42.700;23.360;2023-03-13T00:23:56;95446.34;;;0.64;75.58
3096;BME280;1558;42.700;23.360;2023-03-13T00:26:28;95610.44;;;1.58;76.09
3096;BME280;1558;42.700;23.360;2023-03-13T00:28:56;95600.34;;;1.50;76.49
3096;BME280;1558;42.700;23.360;2023-03-13T00:31:26;95557.88;;;1.25;76.69
3096;BME280;1558;42.700;23.360;2023-03-13T00:33:57;95610.97;;;1.55;76.66
3096;BME280;1558;42.700;23.360;2023-03-13T00:36:26;95572.19;;;1.24;76.36
3096;BME280;1558;42.700;23.360;2023-03-13T00:38:55;95604.63;;;1.56;76.05
3096;BME280;1558;42.700;23.360;2023-03-13T00:41:25;95613.91;;;1.54;76.18
3096;BME280;1558;42.700;23.360;2023-03-13T00:43:53;95608.06;;;1.47;76.13
3096;BME280;1558;42.700;23.360;2023-03-13T00:46:23;95597.19;;;1.33;76.71
3096;BME280;1558;42.700;23.360;2023-03-13T00:48:52;95548.03;;;0.95;76.68
3096;BME280;1558;42.700;23.360;2023-03-13T00:51:22;95596.91;;;1.29;76.59
3096;BME280;1558;42.700;23.360;2023-03-13T00:53:52;95600.63;;;1.28;77.47
3096;BME280;1558;42.700;23.360;2023-03-13T00:56:23;95568.47;;;1.05;77.88
3096;BME280;1558;42.700;23.360;2023-03-13T00:58:51;95554.13;;;0.96;77.40
3096;BME280;1558;42.700;23.360;2023-03-13T01:01:22;95569.56;;;1.04;77.40
3096;BME280;1558;42.700;23.360;2023-03-13T01:03:51;95445.25;;;0.20;77.74
3096;BME280;1558;42.700;23.360;2023-03-13T01:06:23;95590.00;;;1.13;78.15
3096;BME280;1558;42.700;23.360;2023-03-13T01:08:52;95508.72;;;0.62;78.08
3096;BME280;1558;42.700;23.360;2023-03-13T01:11:21;95594.50;;;1.13;77.89
3096;BME280;1558;42.700;23.360;2023-03-13T01:13:53;95517.22;;;0.64;78.41
3096;BME280;1558;42.700;23.360;2023-03-13T01:16:21;95599.03;;;1.17;78.33
3096;BME280;1558;42.700;23.360;2023-03-13T01:18:52;95600.63;;;1.18;78.58
3096;BME280;1558;42.700;23.360;2023-03-13T01:21:22;95590.81;;;1.09;78.84
3096;BME280;1558;42.700;23.360;2023-03-13T01:23:55;95542.41;;;0.72;78.90
3096;BME280;1558;42.700;23.360;2023-03-13T01:26:23;95506.84;;;0.52;78.82
3096;BME280;1558;42.700;23.360;2023-03-13T01:28:52;95604.06;;;1.19;79.64
3096;BME280;1558;42.700;23.360;2023-03-13T01:31:21;95592.94;;;1.07;79.76
3096;BME280;1558;42.700;23.360;2023-03-13T01:33:51;95597.44;;;1.16;79.55
3096;BME280;1558;42.700;23.360;2023-03-13T01:36:22;95609.38;;;1.19;79.85
3096;BME280;1558;42.700;23.360;2023-03-13T01:38:51;95616.03;;;1.11;79.66
3096;BME280;1558;42.700;23.360;2023-03-13T01:41:21;95582.78;;;0.84;80.95
3096;BME280;1558;42.700;23.360;2023-03-13T01:43:49;95613.53;;;0.69;81.21
3096;BME280;1558;42.700;23.360;2023-03-13T01:46:18;95623.56;;;0.47;82.58
3096;BME280;1558;42.700;23.360;2023-03-13T01:48:51;95579.84;;;-0.02;84.19
3096;BME280;1558;42.700;23.360;2023-03-13T01:51:23;95624.22;;;0.18;86.31
3096;BME280;1558;42.700;23.360;2023-03-13T01:53:56;95624.44;;;0.06;88.21
3096;BME280;1558;42.700;23.360;2023-03-13T01:56:31;95633.41;;;-0.05;89.81
3096;BME280;1558;42.700;23.360;2023-03-13T01:59:02;95620.16;;;-0.05;91.26
3096;BME280;1558;42.700;23.360;2023-03-13T02:01:31;95627.00;;;-0.09;92.28
3096;BME280;1558;42.700;23.360;2023-03-13T02:04:00;95573.19;;;-0.56;93.21
3096;BME280;1558;42.700;23.360;2023-03-13T02:06:32;95633.81;;;-0.23;94.76
3096;BME280;1558;42.700;23.360;2023-03-13T02:09:03;95623.41;;;-0.35;95.51
3096;BME280;1558;42.700;23.360;2023-03-13T02:11:41;95610.91;;;-0.39;96.73
3096;BME280;1558;42.700;23.360;2023-03-13T02:14:11;95633.91;;;-0.45;97.36
3096;BME280;1558;42.700;23.360;2023-03-13T02:16:39;95637.31;;;-0.49;98.51
3096;BME280;1558;42.700;23.360;2023-03-13T02:19:17;95643.16;;;-0.52;99.47
3096;BME280;1558;42.700;23.360;2023-03-13T02:21:52;95641.53;;;-0.53;100.00
3096;BME280;1558;42.700;23.360;2023-03-13T02:24:28;95646.03;;;-0.54;100.00
3096;BME280;1558;42.700;23.360;2023-03-13T02:26:59;95632.53;;;-0.57;100.00
3096;BME280;1558;42.700;23.360;2023-03-13T02:29:28;95658.78;;;-0.51;100.00
3096;BME280;1558;42.700;23.360;2023-03-13T02:31:55;95617.72;;;-0.85;100.00
3096;BME280;1558;42.700;23.360;2023-03-13T02:34:28;95665.13;;;-0.52;100.00
3096;BME280;1558;42.700;23.360;2023-03-13T02:36:57;95666.50;;;-0.44;100.00
3096;BME280;1558;42.700;23.360;2023-03-13T02:39:27;95679.22;;;-0.46;100.00
3096;BME280;1558;42.700;23.360;2023-03-13T02:41:57;95682.94;;;-0.42;100.00
3096;BME280;1558;42.700;23.360;2023-03-13T02:44:28;95686.41;;;-0.42;100.00
3096;BME280;1558;42.700;23.360;2023-03-13T02:46:56;95642.16;;;-0.73;100.00
3096;BME280;1558;42.700;23.360;2023-03-13T02:49:26;95701.41;;;-0.52;100.00
3096;BME280;1558;42.700;23.360;2023-03-13T02:51:56;95669.13;;;-0.81;100.00
3096;BME280;1558;42.700;23.360;2023-03-13T02:54:29;95700.84;;;-0.54;100.00
3096;BME280;1558;42.700;23.360;2023-03-13T02:57:02;95615.44;;;-1.03;100.00
3096;BME280;1558;42.700;23.360;2023-03-13T02:59:32;95624.13;;;-0.81;100.00
3096;BME280;1558;42.700;23.360;2023-03-13T03:02:01;95696.59;;;-0.24;100.00
3096;BME280;1558;42.700;23.360;2023-03-13T03:04:29;95633.13;;;-0.45;100.00
3096;BME280;1558;42.700;23.360;2023-03-13T03:06:59;95689.22;;;-0.17;100.00
3096;BME280;1558;42.700;23.360;2023-03-13T03:09:27;95692.06;;;-0.28;100.00
3096;BME280;1558;42.700;23.360;2023-03-13T03:11:55;95698.28;;;-0.44;100.00
3096;BME280;1558;42.700;23.360;2023-03-13T03:14:23;95701.91;;;-0.55;100.00
3096;BME280;1558;42.700;23.360;2023-03-13T03:16:52;95708.34;;;-0.46;100.00
3096;BME280;1558;42.700;23.360;2023-03-13T03:19:20;95711.53;;;-0.44;100.00
3096;BME280;1558;42.700;23.360;2023-03-13T03:21:48;95715.50;;;-0.47;100.00
3096;BME280;1558;42.700;23.360;2023-03-13T03:24:17;95727.69;;;-0.46;100.00
3096;BME280;1558;42.700;23.360;2023-03-13T03:26:45;95727.78;;;-0.36;100.00
3096;BME280;1558;42.700;23.360;2023-03-13T03:29:13;95736.06;;;-0.27;100.00
3096;BME280;1558;42.700;23.360;2023-03-13T03:31:41;95736.19;;;-0.44;100.00
3096;BME280;1558;42.700;23.360;2023-03-13T03:34:10;95746.19;;;-0.51;100.00
3096;BME280;1558;42.700;23.360;2023-03-13T03:36:38;95733.59;;;-0.39;100.00
3096;BME280;1558;42.700;23.360;2023-03-13T03:39:07;95734.63;;;-0.40;100.00
3096;BME280;1558;42.700;23.360;2023-03-13T03:41:34;95741.94;;;-0.52;100.00
3096;BME280;1558;42.700;23.360;2023-03-13T03:44:03;95745.38;;;-0.51;100.00
3096;BME280;1558;42.700;23.360;2023-03-13T03:46:31;95756.06;;;-0.41;100.00
3096;BME280;1558;42.700;23.360;2023-03-13T03:48:59;95774.13;;;-0.38;100.00
3096;BME280;1558;42.700;23.360;2023-03-13T03:51:29;95744.19;;;-0.65;100.00
3096;BME280;1558;42.700;23.360;2023-03-13T03:53:57;95772.28;;;-0.64;100.00
3096;BME280;1558;42.700;23.360;2023-03-13T03:56:25;95751.69;;;-0.84;100.00
3096;BME280;1558;42.700;23.360;2023-03-13T03:58:53;95758.06;;;-0.80;100.00
3096;BME280;1558;42.700;23.360;2023-03-13T04:01:20;95766.41;;;-0.67;100.00
3096;BME280;1558;42.700;23.360;2023-03-13T04:03:48;95782.94;;;-0.54;100.00
3096;BME280;1558;42.700;23.360;2023-03-13T04:06:16;95775.00;;;-0.54;100.00
3096;BME280;1558;42.700;23.360;2023-03-13T04:08:49;95750.94;;;-0.80;100.00
3096;BME280;1558;42.700;23.360;2023-03-13T04:11:17;95775.03;;;-0.76;100.00
3096;BME280;1558;42.700;23.360;2023-03-13T04:13:45;95781.53;;;-0.89;100.00
3096;BME280;1558;42.700;23.360;2023-03-13T04:16:13;95799.59;;;-0.86;100.00
3096;BME280;1558;42.700;23.360;2023-03-13T04:18:41;95795.88;;;-0.85;100.00
3096;BME280;1558;42.700;23.360;2023-03-13T04:21:09;95797.41;;;-0.89;100.00
3096;BME280;1558;42.700;23.360;2023-03-13T04:23:37;95807.94;;;-0.94;100.00
3096;BME280;1558;42.700;23.360;2023-03-13T04:26:06;95810.09;;;-0.91;100.00
3096;BME280;1558;42.700;23.360;2023-03-13T04:28:34;95793.72;;;-0.88;100.00
3096;BME280;1558;42.700;23.360;2023-03-13T04:31:02;95721.06;;;-1.23;100.00
3096;BME280;1558;42.700;23.360;2023-03-13T04:33:30;95823.44;;;-0.59;100.00
3096;BME280;1558;42.700;23.360;2023-03-13T04:35:58;95819.38;;;-0.67;100.00
3096;BME280;1558;42.700;23.360;2023-03-13T04:38:26;95821.53;;;-0.63;100.00
3096;BME280;1558;42.700;23.360;2023-03-13T04:40:54;95828.78;;;-0.54;100.00
3096;BME280;1558;42.700;23.360;2023-03-13T04:43:23;95833.59;;;-0.51;100.00
3096;BME280;1558;42.700;23.360;2023-03-13T04:45:51;95795.88;;;-0.85;100.00
3096;BME280;1558;42.700;23.360;2023-03-13T04:48:20;95792.25;;;-0.79;100.00
3096;BME280;1558;42.700;23.360;2023-03-13T04:50:48;95845.94;;;-0.35;100.00
3096;BME280;1558;42.700;23.360;2023-03-13T04:53:16;95816.19;;;-0.42;100.00
3096;BME280;1558;42.700;23.360;2023-03-13T04:55:48;95849.84;;;0.11;100.00
3096;BME280;1558;42.700;23.360;2023-03-13T04:58:16;95826.53;;;0.50;100.00
3096;BME280;1558;42.700;23.360;2023-03-13T05:00:47;95841.88;;;0.85;100.00
3096;BME280;1558;42.700;23.360;2023-03-13T05:03:24;95847.28;;;1.00;100.00
3096;BME280;1558;42.700;23.360;2023-03-13T05:06:07;95848.22;;;1.30;100.00
3096;BME280;1558;42.700;23.360;2023-03-13T05:08:35;95831.63;;;1.75;100.00
3096;BME280;1558;42.700;23.360;2023-03-13T05:11:04;95842.84;;;2.18;100.00
3096;BME280;1558;42.700;23.360;2023-03-13T05:13:32;95840.72;;;2.15;100.00
3096;BME280;1558;42.700;23.360;2023-03-13T05:16:01;95853.78;;;2.36;98.86
3096;BME280;1558;42.700;23.360;2023-03-13T05:18:29;95851.38;;;2.75;97.13
3096;BME280;1558;42.700;23.360;2023-03-13T05:20:57;95851.03;;;3.07;94.12
3096;BME280;1558;42.700;23.360;2023-03-13T05:23:25;95869.09;;;3.35;90.07
3096;BME280;1558;42.700;23.360;2023-03-13T05:25:53;95870.16;;;3.34;87.60
3096;BME280;1558;42.700;23.360;2023-03-13T05:28:22;95871.63;;;3.65;86.36
3096;BME280;1558;42.700;23.360;2023-03-13T05:30:51;95878.31;;;3.68;83.42
3096;BME280;1558;42.700;23.360;2023-03-13T05:33:20;95851.66;;;3.63;82.16
3096;BME280;1558;42.700;23.360;2023-03-13T05:35:48;95860.03;;;3.90;81.32
3096;BME280;1558;42.700;23.360;2023-03-13T05:38:16;95828.78;;;4.00;80.30
3096;BME280;1558;42.700;23.360;2023-03-13T05:40:45;95878.38;;;4.45;77.42
3096;BME280;1558;42.700;23.360;2023-03-13T05:43:13;95863.13;;;4.12;76.52
3096;BME280;1558;42.700;23.360;2023-03-13T05:45:41;95891.00;;;3.91;76.18
3096;BME280;1558;42.700;23.360;2023-03-13T05:48:11;95871.31;;;3.77;76.53
3096;BME280;1558;42.700;23.360;2023-03-13T05:50:56;95856.59;;;3.89;76.68
3096;BME280;1558;42.700;23.360;2023-03-13T05:53:30;95892.81;;;4.44;75.94
3096;BME280;1558;42.700;23.360;2023-03-13T05:56:00;95903.38;;;4.59;74.83
3096;BME280;1558;42.700;23.360;2023-03-13T05:58:29;95904.00;;;4.51;73.76
3096;BME280;1558;42.700;23.360;2023-03-13T06:00:58;95893.03;;;4.48;73.42
3096;BME280;1558;42.700;23.360;2023-03-13T06:03:26;95899.88;;;4.25;73.39
3096;BME280;1558;42.700;23.360;2023-03-13T06:06:02;95901.84;;;4.53;73.44
3096;BME280;1558;42.700;23.360;2023-03-13T06:08:31;95902.13;;;4.80;73.02
3096;BME280;1558;42.700;23.360;2023-03-13T06:10:59;95915.63;;;4.65;71.30
3096;BME280;1558;42.700;23.360;2023-03-13T06:13:32;95903.50;;;5.07;71.04
3096;BME280;1558;42.700;23.360;2023-03-13T06:16:03;95898.50;;;5.29;69.90
3096;BME280;1558;42.700;23.360;2023-03-13T06:18:33;95900.97;;;5.73;69.04
3096;BME280;1558;42.700;23.360;2023-03-13T06:21:06;95900.84;;;5.59;67.08
3096;BME280;1558;42.700;23.360;2023-03-13T06:23:38;95874.28;;;5.68;67.11
3096;BME280;1558;42.700;23.360;2023-03-13T06:26:08;95908.56;;;5.89;65.71
3096;BME280;1558;42.700;23.360;2023-03-13T06:28:36;95883.16;;;5.63;64.51
3096;BME280;1558;42.700;23.360;2023-03-13T06:31:05;95917.34;;;5.66;65.19
3096;BME280;1558;42.700;23.360;2023-03-13T06:33:33;95906.47;;;5.86;65.16
3096;BME280;1558;42.700;23.360;2023-03-13T06:36:05;95893.50;;;5.46;65.32
3096;BME280;1558;42.700;23.360;2023-03-13T06:38:34;95875.03;;;5.21;64.81
3096;BME280;1558;42.700;23.360;2023-03-13T06:41:04;95888.88;;;5.75;65.75
3096;BME280;1558;42.700;23.360;2023-03-13T06:43:35;95888.31;;;6.21;64.08
3096;BME280;1558;42.700;23.360;2023-03-13T06:46:12;95891.41;;;6.83;64.40
3096;BME280;1558;42.700;23.360;2023-03-13T06:48:46;95832.00;;;6.26;62.11
3096;BME280;1558;42.700;23.360;2023-03-13T06:51:20;95886.78;;;6.70;62.32
3096;BME280;1558;42.700;23.360;2023-03-13T06:53:48;95887.19;;;6.96;62.15
3096;BME280;1558;42.700;23.360;2023-03-13T06:56:19;95893.59;;;6.81;60.44
3096;BME280;1558;42.700;23.360;2023-03-13T06:58:56;95883.16;;;7.12;60.01
3096;BME280;1558;42.700;23.360;2023-03-13T07:01:41;95877.03;;;7.66;60.23
3096;BME280;1558;42.700;23.360;2023-03-13T07:04:13;95882.31;;;7.44;58.77
3096;BME280;1558;42.700;23.360;2023-03-13T07:07:01;95882.31;;;7.71;58.15
3096;BME280;1558;42.700;23.360;2023-03-13T07:09:42;95873.66;;;7.47;56.63
3096;BME280;1558;42.700;23.360;2023-03-13T07:12:16;95870.25;;;7.14;57.86
3096;BME280;1558;42.700;23.360;2023-03-13T07:14:48;95892.75;;;7.45;58.59
3096;BME280;1558;42.700;23.360;2023-03-13T07:17:17;95862.81;;;7.38;57.91
3096;BME280;1558;42.700;23.360;2023-03-13T07:19:46;95878.72;;;7.89;57.73
3096;BME280;1558;42.700;23.360;2023-03-13T07:22:17;95874.28;;;7.58;56.89
3096;BME280;1558;42.700;23.360;2023-03-13T07:24:53;95884.41;;;7.88;57.58
3096;BME280;1558;42.700;23.360;2023-03-13T07:27:26;95878.84;;;6.98;55.60
3096;BME280;1558;42.700;23.360;2023-03-13T07:29:55;95876.16;;;6.47;58.54
3096;BME280;1558;42.700;23.360;2023-03-13T07:32:30;95874.66;;;7.51;58.71
3096;BME280;1558;42.700;23.360;2023-03-13T07:34:59;95860.94;;;7.66;58.23
3096;BME280;1558;42.700;23.360;2023-03-13T07:37:34;95867.19;;;8.02;56.17
3096;BME280;1558;42.700;23.360;2023-03-13T07:40:05;95744.06;;;7.33;56.04
3096;BME280;1558;42.700;23.360;2023-03-13T07:42:38;95875.19;;;8.43;55.99
3096;BME280;1558;42.700;23.360;2023-03-13T07:45:07;95875.13;;;8.57;55.41
3096;BME280;1558;42.700;23.360;2023-03-13T07:47:36;95888.16;;;8.41;55.03
3096;BME280;1558;42.700;23.360;2023-03-13T07:50:05;95888.03;;;8.33;54.55
3096;BME280;1558;42.700;23.360;2023-03-13T07:52:35;95868.28;;;7.88;55.07
3096;BME280;1558;42.700;23.360;2023-03-13T07:55:05;95884.94;;;8.26;56.37
3096;BME280;1558;42.700;23.360;2023-03-13T07:57:33;95871.34;;;9.02;54.74
3096;BME280;1558;42.700;23.360;2023-03-13T08:00:03;95862.72;;;9.14;53.79
3096;BME280;1558;42.700;23.360;2023-03-13T08:02:35;95861.41;;;9.03;53.74
3096;BME280;1558;42.700;23.360;2023-03-13T08:05:07;95840.31;;;8.52;53.54
3096;BME280;1558;42.700;23.360;2023-03-13T08:07:39;95868.88;;;8.83;53.20
3096;BME280;1558;42.700;23.360;2023-03-13T08:10:11;95860.53;;;8.71;53.46
3096;BME280;1558;42.700;23.360;2023-03-13T08:12:50;95855.53;;;8.78;52.48
3096;BME280;1558;42.700;23.360;2023-03-13T08:15:22;95862.63;;;7.76;52.46
3096;BME280;1558;42.700;23.360;2023-03-13T08:17:59;95861.75;;;7.67;55.22
3096;BME280;1558;42.700;23.360;2023-03-13T08:20:27;95857.00;;;8.84;55.02
3096;BME280;1558;42.700;23.360;2023-03-13T08:22:59;95856.63;;;9.61;52.96
3096;BME280;1558;42.700;23.360;2023-03-13T08:25:27;95855.19;;;9.64;51.43
3096;BME280;1558;42.700;23.360;2023-03-13T08:27:57;95854.13;;;10.12;51.03
3096;BME280;1558;42.700;23.360;2023-03-13T08:30:28;95857.28;;;10.23;49.67
3096;BME280;1558;42.700;23.360;2023-03-13T08:32:56;95846.47;;;9.58;49.56
3096;BME280;1558;42.700;23.360;2023-03-13T08:35:25;95870.63;;;10.19;49.91
3096;BME280;1558;42.700;23.360;2023-03-13T08:37:54;95854.50;;;9.41;48.13
3096;BME280;1558;42.700;23.360;2023-03-13T08:40:24;95869.50;;;9.42;48.54
3096;BME280;1558;42.700;23.360;2023-03-13T08:42:53;95813.03;;;8.89;50.08
3096;BME280;1558;42.700;23.360;2023-03-13T08:45:23;95866.78;;;9.73;49.97
3096;BME280;1558;42.700;23.360;2023-03-13T08:47:52;95859.88;;;9.41;49.59
3096;BME280;1558;42.700;23.360;2023-03-13T08:50:20;95852.91;;;9.96;49.99
3096;BME280;1558;42.700;23.360;2023-03-13T08:52:49;95856.09;;;9.98;50.14
3096;BME280;1558;42.700;23.360;2023-03-13T08:55:19;95843.94;;;10.09;49.02
3096;BME280;1558;42.700;23.360;2023-03-13T08:57:50;95855.69;;;10.13;49.04
3096;BME280;1558;42.700;23.360;2023-03-13T09:00:19;95847.66;;;10.48;48.50
3096;BME280;1558;42.700;23.360;2023-03-13T09:02:47;95851.59;;;10.42;47.87
3096;BME280;1558;42.700;23.360;2023-03-13T09:05:14;95849.69;;;11.02;48.03
3096;BME280;1558;42.700;23.360;2023-03-13T09:07:42;95842.84;;;11.05;46.72
3096;BME280;1558;42.700;23.360;2023-03-13T09:10:12;95854.09;;;11.15;46.24
3096;BME280;1558;42.700;23.360;2023-03-13T09:12:42;95850.44;;;11.66;45.87
3096;BME280;1558;42.700;23.360;2023-03-13T09:15:14;95828.22;;;11.14;45.85
3096;BME280;1558;42.700;23.360;2023-03-13T09:17:42;95847.91;;;11.61;46.14
3096;BME280;1558;42.700;23.360;2023-03-13T09:20:10;95827.94;;;10.90;44.83
3096;BME280;1558;42.700;23.360;2023-03-13T09:22:38;95835.09;;;10.77;46.24
3096;BME280;1558;42.700;23.360;2023-03-13T09:25:09;95820.31;;;11.47;45.73
3096;BME280;1558;42.700;23.360;2023-03-13T09:27:37;95829.06;;;11.52;44.72
3096;BME280;1558;42.700;23.360;2023-03-13T09:30:07;95840.06;;;12.14;44.51
3096;BME280;1558;42.700;23.360;2023-03-13T09:32:37;95804.91;;;11.47;43.31
3096;BME280;1558;42.700;23.360;2023-03-13T09:35:05;95845.69;;;11.08;44.14
3096;BME280;1558;42.700;23.360;2023-03-13T09:37:33;95754.47;;;10.76;45.35
3096;BME280;1558;42.700;23.360;2023-03-13T09:40:01;95843.88;;;11.29;45.75
3096;BME280;1558;42.700;23.360;2023-03-13T09:42:34;95804.78;;;11.82;44.82
3096;BME280;1558;42.700;23.360;2023-03-13T09:45:12;95829.34;;;12.47;43.47
3096;BME280;1558;42.700;23.360;2023-03-13T09:47:45;95832.00;;;12.06;43.33
3096;BME280;1558;42.700;23.360;2023-03-13T09:50:17;95831.97;;;11.77;43.37
3096;BME280;1558;42.700;23.360;2023-03-13T09:52:48;95816.09;;;11.75;44.50
3096;BME280;1558;42.700;23.360;2023-03-13T09:55:19;95825.38;;;11.95;43.67
3096;BME280;1558;42.700;23.360;2023-03-13T09:57:50;95826.84;;;12.13;42.94
3096;BME280;1558;42.700;23.360;2023-03-13T10:00:23;95805.09;;;12.09;43.21
3096;BME280;1558;42.700;23.360;2023-03-13T10:02:57;95790.41;;;12.19;42.91
3096;BME280;1558;42.700;23.360;2023-03-13T10:05:28;95820.13;;;11.69;42.56
3096;BME280;1558;42.700;23.360;2023-03-13T10:08:04;95821.09;;;11.56;43.46
3096;BME280;1558;42.700;23.360;2023-03-13T10:10:40;95816.34;;;12.41;43.10
3096;BME280;1558;42.700;23.360;2023-03-13T10:13:15;95793.84;;;12.81;42.23
3096;BME280;1558;42.700;23.360;2023-03-13T10:15:50;95786.94;;;13.05;40.76
3096;BME280;1558;42.700;23.360;2023-03-13T10:18:23;95797.19;;;12.66;41.57
3096;BME280;1558;42.700;23.360;2023-03-13T10:20:52;95773.50;;;12.43;41.20
3096;BME280;1558;42.700;23.360;2023-03-13T10:23:27;95782.78;;;12.54;42.54
3096;BME280;1558;42.700;23.360;2023-03-13T10:26:02;95785.38;;;11.80;42.22
3096;BME280;1558;42.700;23.360;2023-03-13T10:28:30;95772.88;;;11.96;43.78
3096;BME280;1558;42.700;23.360;2023-03-13T10:31:03;95777.28;;;12.62;42.23
3096;BME280;1558;42.700;23.360;2023-03-13T10:33:36;95768.91;;;12.76;42.18
3096;BME280;1558;42.700;23.360;2023-03-13T10:36:06;95763.56;;;13.00;42.42
3096;BME280;1558;42.700;23.360;2023-03-13T10:38:45;95768.03;;;13.17;40.80
3096;BME280;1558;42.700;23.360;2023-03-13T10:41:19;95765.97;;;12.69;40.95
3096;BME280;1558;42.700;23.360;2023-03-13T10:43:51;95694.38;;;12.46;42.04
3096;BME280;1558;42.700;23.360;2023-03-13T10:46:27;95711.91;;;12.60;40.36
3096;BME280;1558;42.700;23.360;2023-03-13T10:49:00;95747.09;;;12.40;41.74
3096;BME280;1558;42.700;23.360;2023-03-13T10:51:34;95747.31;;;12.35;41.19
3096;BME280;1558;42.700;23.360;2023-03-13T10:54:13;95729.75;;;12.20;41.70
3096;BME280;1558;42.700;23.360;2023-03-13T10:56:41;95687.56;;;11.86;42.61
3096;BME280;1558;42.700;23.360;2023-03-13T10:59:22;95739.94;;;12.23;42.17
3096;BME280;1558;42.700;23.360;2023-03-13T11:01:51;95710.63;;;12.25;41.49
3096;BME280;1558;42.700;23.360;2023-03-13T11:04:29;95730.38;;;12.58;40.81
3096;BME280;1558;42.700;23.360;2023-03-13T11:07:01;95708.94;;;12.53;41.68
3096;BME280;1558;42.700;23.360;2023-03-13T11:09:29;95712.50;;;13.23;40.44
3096;BME280;1558;42.700;23.360;2023-03-13T11:12:03;95627.97;;;12.48;40.46
3096;BME280;1558;42.700;23.360;2023-03-13T11:14:31;95706.53;;;13.41;40.04
3096;BME280;1558;42.700;23.360;2023-03-13T11:17:03;95695.72;;;13.93;40.20
3096;BME280;1558;42.700;23.360;2023-03-13T11:19:53;95709.59;;;14.16;38.96
3096;BME280;1558;42.700;23.360;2023-03-13T11:22:39;95680.66;;;13.68;38.13
3096;BME280;1558;42.700;23.360;2023-03-13T11:25:27;95704.16;;;13.28;39.04
3096;BME280;1558;42.700;23.360;2023-03-13T11:28:19;95688.94;;;12.66;40.35
3096;BME280;1558;42.700;23.360;2023-03-13T11:30:58;95692.78;;;12.77;40.66
3096;BME280;1558;42.700;23.360;2023-03-13T11:33:37;95663.75;;;13.23;40.18
3096;BME280;1558;42.700;23.360;2023-03-13T11:36:20;95664.38;;;13.68;39.50
3096;BME280;1558;42.700;23.360;2023-03-13T11:38:53;95677.69;;;13.85;39.07
3096;BME280;1558;42.700;23.360;2023-03-13T11:41:44;95668.59;;;14.05;39.95
3096;BME280;1558;42.700;23.360;2023-03-13T11:44:23;95658.78;;;14.29;38.60
3096;BME280;1558;42.700;23.360;2023-03-13T11:47:04;95648.50;;;13.94;38.84
3096;BME280;1558;42.700;23.360;2023-03-13T11:49:48;95653.91;;;14.34;38.32
3096;BME280;1558;42.700;23.360;2023-03-13T11:52:29;95646.34;;;14.27;37.92
3096;BME280;1558;42.700;23.360;2023-03-13T11:55:18;95645.72;;;14.18;38.23
3096;BME280;1558;42.700;23.360;2023-03-13T11:57:58;95639.50;;;15.05;38.69
3096;BME280;1558;42.700;23.360;2023-03-13T12:00:35;95644.38;;;15.46;37.47
3096;BME280;1558;42.700;23.360;2023-03-13T12:03:11;95593.53;;;15.15;36.50
3096;BME280;1558;42.700;23.360;2023-03-13T12:05:44;95615.28;;;14.68;37.16
3096;BME280;1558;42.700;23.360;2023-03-13T12:08:20;95625.53;;;15.06;37.00
3096;BME280;1558;42.700;23.360;2023-03-13T12:11:02;95615.22;;;14.80;36.76
3096;BME280;1558;42.700;23.360;2023-03-13T12:13:36;95612.06;;;14.78;37.61
3096;BME280;1558;42.700;23.360;2023-03-13T12:16:09;95615.47;;;14.75;37.19
3096;BME280;1558;42.700;23.360;2023-03-13T12:18:40;95615.31;;;15.00;37.43
3096;BME280;1558;42.700;23.360;2023-03-13T12:21:15;95600.28;;;15.21;37.43
3096;BME280;1558;42.700;23.360;2023-03-13T12:23:51;95606.47;;;15.53;36.62
3096;BME280;1558;42.700;23.360;2023-03-13T12:26:30;95602.19;;;15.36;35.21
3096;BME280;1558;42.700;23.360;2023-03-13T12:29:06;95605.31;;;14.57;36.64
3096;BME280;1558;42.700;23.360;2023-03-13T12:31:41;95593.91;;;14.51;36.60
3096;BME280;1558;42.700;23.360;2023-03-13T12:34:16;95597.31;;;15.11;37.04
3096;BME280;1558;42.700;23.360;2023-03-13T12:36:48;95591.34;;;14.74;36.39
3096;BME280;1558;42.700;23.360;2023-03-13T12:39:27;95602.41;;;14.50;37.18
3096;BME280;1558;42.700;23.360;2023-03-13T12:42:09;95589.53;;;14.78;36.27
3096;BME280;1558;42.700;23.360;2023-03-13T12:44:40;95579.72;;;14.58;37.70
3096;BME280;1558;42.700;23.360;2023-03-13T12:47:09;95583.47;;;15.00;37.39
3096;BME280;1558;42.700;23.360;2023-03-13T12:50:14;95589.91;;;15.42;36.66
3096;BME280;1558;42.700;23.360;2023-03-13T12:52:59;95580.88;;;14.88;35.96
3096;BME280;1558;42.700;23.360;2023-03-13T12:56:08;95583.91;;;14.40;37.63
3096;BME280;1558;42.700;23.360;2023-03-13T12:58:43;95589.06;;;15.07;37.51
3096;BME280;1558;42.700;23.360;2023-03-13T13:01:20;95587.59;;;14.94;36.83
3096;BME280;1558;42.700;23.360;2023-03-13T13:03:55;95592.44;;;14.85;36.16
3096;BME280;1558;42.700;23.360;2023-03-13T13:06:25;95560.28;;;14.12;36.90
3096;BME280;1558;42.700;23.360;2023-03-13T13:09:06;95592.31;;;14.50;37.65
3096;BME280;1558;42.700;23.360;2023-03-13T13:11:54;95589.22;;;14.36;37.75
3096;BME280;1558;42.700;23.360;2023-03-13T13:17:59;95586.28;;;14.13;38.18
3096;BME280;1558;42.700;23.360;2023-03-13T13:20:41;95559.63;;;13.88;38.12
3096;BME280;1558;42.700;23.360;2023-03-13T13:23:32;95541.72;;;13.31;38.34
3096;BME280;1558;42.700;23.360;2023-03-13T13:32:39;95577.28;;;12.81;38.58
3096;BME280;1558;42.700;23.360;2023-03-13T13:35:29;95572.56;;;12.66;38.93
3096;BME280;1558;42.700;23.360;2023-03-13T13:38:20;95566.44;;;12.45;39.25
3096;BME280;1558;42.700;23.360;2023-03-13T13:40:59;95565.75;;;12.60;39.80
3096;BME280;1558;42.700;23.360;2023-03-13T13:43:30;95568.72;;;12.10;39.06
3096;BME280;1558;42.700;23.360;2023-03-13T13:46:04;95566.06;;;11.90;40.45
3096;BME280;1558;42.700;23.360;2023-03-13T13:48:36;95559.66;;;11.94;40.58